Time;durP1;ratioP1;P1;durP2;ratioP2;P2;SDS_P1;SDS_P2;PMS_P1;PMS_P2;Temp;Humidity;BMP_temperature;BMP_pressure;BME280_temperature;BME280_humidity;BME280_pressure;Samples;Min_cycle;Max_cycle;Signal;HPM_P1;HPM_P2
2024/03/14 00:02:18;;;;;;;;;;;;;;;14.58;46.42;100296.03;5058615;28;1109;-43
2024/03/14 00:04:44;;;;;;;;;;;;;;;14.53;46.04;100293.72;5058099;28;1042;-45
2024/03/14 00:07:10;;;;;;;;;;;;;;;16.27;47.93;100305.69;5058867;28;1113;-44
2024/03/14 00:09:35;;;;;;;;;;;;;;;15.67;48.58;100300.53;5057779;28;1074;-39
2024/03/14 00:12:01;;;;;;;;;;;;;;;15.10;48.69;100300.34;5052744;28;886;-42
2024/03/14 00:14:26;;;;;;;;;;;;;;;14.87;47.68;100294.94;5054470;28;1067;-43
2024/03/14 00:16:52;;;;;;;;;;;;;;;14.78;47.22;100289.31;5048530;28;1898;-41
2024/03/14 00:19:19;;;;;;;;;;;;;;;15.50;48.44;100293.84;5045334;28;1261;-44
2024/03/14 00:21:45;;;;;;;;;;;;;;;15.89;48.76;100288.25;5048191;28;1187;-44
2024/03/14 00:24:11;;;;;;;;;;;;;;;15.19;48.75;100283.78;5042673;28;970;-45
2024/03/14 00:26:37;;;;;;;;;;;;;;;14.94;47.96;100288.22;5058010;28;1097;-41
2024/03/14 00:29:02;;;;;;;;;;;;;;;15.16;49.18;100287.47;5044886;28;1047;-45
2024/03/14 00:31:29;;;;;;;;;;;;;;;16.18;48.46;100298.47;5058141;28;1051;-42
2024/03/14 00:33:55;;;;;;;;;;;;;;;15.27;48.73;100293.78;5054089;28;1122;-39
2024/03/14 00:36:21;;;;;;;;;;;;;;;14.93;48.02;100292.69;5044921;28;2220;-43
2024/03/14 00:38:47;;;;;;;;;;;;;;;14.80;47.35;100302.47;5051040;28;1139;-39
2024/03/14 00:41:13;;;;;;;;;;;;;;;15.24;48.71;100296.66;5048549;28;1138;-45
2024/03/14 00:43:39;;;;;;;;;;;;;;;16.93;47.83;100299.66;5054332;28;1161;-45
2024/03/14 00:46:05;;;;;;;;;;;;;;;15.69;49.01;100288.00;5047471;28;1102;-43
2024/03/14 00:48:34;;;;;;;;;;;;;;;15.19;48.75;100291.72;5055584;28;957;-40
2024/03/14 00:50:59;;;;;;;;;;;;;;;14.96;48.24;100296.06;5057432;28;1106;-41
2024/03/14 00:53:25;;;;;;;;;;;;;;;14.97;47.20;100292.44;5057451;28;1067;-43
2024/03/14 00:55:51;;;;;;;;;;;;;;;14.72;46.67;100292.41;5057463;28;1985;-41
2024/03/14 00:58:16;;;;;;;;;;;;;;;15.72;48.14;100295.72;5053034;28;1090;-43
2024/03/14 01:00:42;;;;;;;;;;;;;;;15.33;48.68;100300.44;5048854;28;833;-43
2024/03/14 01:03:08;;;;;;;;;;;;;;;15.02;47.88;100298.25;5057076;28;1126;-45
2024/03/14 01:05:35;;;;;;;;;;;;;;;14.78;47.68;100301.72;5057659;28;1086;-44
2024/03/14 01:08:01;;;;;;;;;;;;;;;14.78;46.90;100307.84;5043590;28;1135;-44
2024/03/14 01:10:28;;;;;;;;;;;;;;;14.64;46.22;100308.88;5057874;28;1154;-38
2024/03/14 01:12:54;;;;;;;;;;;;;;;15.27;47.67;100310.53;5055963;28;841;-39
2024/03/14 01:15:22;;;;;;;;;;;;;;;15.39;48.46;100311.44;5056924;28;1979;-44
2024/03/14 01:17:48;;;;;;;;;;;;;;;14.92;47.90;100308.69;5043690;28;1079;-41
2024/03/14 01:20:16;;;;;;;;;;;;;;;14.70;47.21;100312.84;5045160;28;1147;-41
2024/03/14 01:22:44;;;;;;;;;;;;;;;14.61;47.34;100313.53;5051350;28;1056;-41
2024/03/14 01:25:10;;;;;;;;;;;;;;;15.73;47.76;100321.25;5057342;28;1247;-42
2024/03/14 01:27:36;;;;;;;;;;;;;;;14.98;48.24;100312.69;5043886;28;1143;-42
2024/03/14 01:30:02;;;;;;;;;;;;;;;14.72;47.55;100310.94;5056936;28;1054;-43
2024/03/14 01:32:28;;;;;;;;;;;;;;;14.57;46.96;100307.59;5056691;28;1035;-42
2024/03/14 01:34:54;;;;;;;;;;;;;;;15.89;48.15;100310.34;5054774;28;1099;-42
2024/03/14 01:37:21;;;;;;;;;;;;;;;16.96;47.04;100299.41;5056612;28;1906;-45
2024/03/14 01:39:49;;;;;;;;;;;;;;;15.51;49.35;100312.31;5056626;28;1052;-44
2024/03/14 01:42:14;;;;;;;;;;;;;;;15.17;48.57;100305.06;5056348;28;1193;-42
2024/03/14 01:44:40;;;;;;;;;;;;;;;14.89;47.79;100307.13;5056346;28;1109;-40
2024/03/14 01:47:06;;;;;;;;;;;;;;;14.75;47.38;100313.38;5040275;28;1170;-41
2024/03/14 01:49:32;;;;;;;;;;;;;;;14.64;46.68;100319.44;5049493;28;1108;-41
2024/03/14 01:51:58;;;;;;;;;;;;;;;14.99;47.71;100317.88;5043189;28;1095;-45
2024/03/14 01:54:24;;;;;;;;;;;;;;;15.74;48.05;100309.72;5056830;28;1102;-44
2024/03/14 01:56:57;;;;;;;;;;;;;;;15.04;48.75;100315.75;5056245;28;1902;-42
2024/03/14 01:59:27;;;;;;;;;;;;;;;14.75;47.93;100326.59;5035151;28;1143;-43
2024/03/14 02:01:56;;;;;;;;;;;;;;;14.71;47.08;100326.94;5031302;28;1314;-41
2024/03/14 02:04:23;;;;;;;;;;;;;;;15.84;48.40;100322.25;5049967;28;1138;-42
2024/03/14 02:06:53;;;;;;;;;;;;;;;15.40;48.91;100323.72;5027000;28;1047;-46
2024/03/14 02:09:22;;;;;;;;;;;;;;;14.95;48.36;100319.03;5038226;28;1175;-47
2024/03/14 02:11:51;;;;;;;;;;;;;;;14.66;47.89;100319.34;5049178;28;1141;-46
2024/03/14 02:14:16;;;;;;;;;;;;;;;14.59;47.13;100321.56;5052054;28;1174;-45
2024/03/14 02:16:42;;;;;;;;;;;;;;;16.03;48.02;100319.91;5046429;28;1894;-44
2024/03/14 02:19:08;;;;;;;;;;;;;;;15.00;48.92;100318.72;5049604;28;1157;-41
2024/03/14 02:21:34;;;;;;;;;;;;;;;14.78;47.76;100313.16;5046060;28;1159;-45
2024/03/14 02:24:00;;;;;;;;;;;;;;;14.68;47.40;100322.72;5046835;28;1170;-43
2024/03/14 02:26:26;;;;;;;;;;;;;;;15.94;48.22;100330.34;5028231;28;1054;-41
2024/03/14 02:28:52;;;;;;;;;;;;;;;15.81;48.44;100328.66;5039743;28;1150;-45
2024/03/14 02:31:18;;;;;;;;;;;;;;;15.13;48.40;100329.28;5045378;28;1214;-42
2024/03/14 02:33:44;;;;;;;;;;;;;;;14.85;48.01;100326.81;5052739;28;1159;-43
2024/03/14 02:36:09;;;;;;;;;;;;;;;14.69;47.19;100330.56;5053705;28;1997;-42
2024/03/14 02:38:36;;;;;;;;;;;;;;;16.01;48.42;100324.50;5052751;28;1070;-43
2024/03/14 02:41:03;;;;;;;;;;;;;;;15.79;48.76;100330.56;5046615;28;1000;-44
2024/03/14 02:43:28;;;;;;;;;;;;;;;15.15;48.66;100327.34;5051540;28;1046;-44
2024/03/14 02:45:54;;;;;;;;;;;;;;;15.46;49.10;100332.16;5047052;28;1039;-43
2024/03/14 02:48:19;;;;;;;;;;;;;;;15.33;48.55;100327.78;5042574;28;1155;-41
2024/03/14 02:50:45;;;;;;;;;;;;;;;14.97;48.21;100317.13;5055182;28;1146;-47
2024/03/14 02:53:13;;;;;;;;;;;;;;;14.75;47.69;100331.91;5038850;28;1139;-46
2024/03/14 02:55:39;;;;;;;;;;;;;;;14.61;47.01;100329.41;5036174;28;1898;-44
2024/03/14 02:58:06;;;;;;;;;;;;;;;16.33;47.87;100327.41;5052054;28;1023;-43
2024/03/14 03:00:32;;;;;;;;;;;;;;;15.97;48.39;100333.63;5046097;28;1126;-41
2024/03/14 03:02:58;;;;;;;;;;;;;;;15.27;48.54;100326.44;5052539;28;1095;-42
2024/03/14 03:05:23;;;;;;;;;;;;;;;14.99;48.26;100330.28;5055472;28;1055;-39
2024/03/14 03:07:49;;;;;;;;;;;;;;;14.80;47.47;100332.44;5055296;28;1059;-44
2024/03/14 03:10:16;;;;;;;;;;;;;;;14.71;46.74;100341.03;5055730;28;1047;-41
2024/03/14 03:12:42;;;;;;;;;;;;;;;14.55;46.75;100342.13;5047253;28;1019;-40
2024/03/14 03:15:10;;;;;;;;;;;;;;;15.58;48.45;100347.13;5046574;28;1906;-43
2024/03/14 03:17:38;;;;;;;;;;;;;;;15.85;48.25;100348.66;5052803;28;1079;-40
2024/03/14 03:20:10;;;;;;;;;;;;;;;15.19;48.64;100344.72;5059607;28;1035;-42
2024/03/14 03:23:04;;;;;;;;;;;;;;;15.11;49.23;100342.63;5045851;28;1210;-42
2024/03/14 03:25:23;;;;;;;;;;;;;;;16.22;48.17;100350.31;5056989;28;1170;-44
2024/03/14 03:27:49;;;;;;;;;;;;;;;15.27;48.58;100344.13;5046900;28;1083;-43
2024/03/14 03:30:14;;;;;;;;;;;;;;;15.03;48.02;100347.66;5059225;28;1145;-44
2024/03/14 03:32:40;;;;;;;;;;;;;;;14.87;47.18;100347.91;5052005;28;1190;-42
2024/03/14 03:35:06;;;;;;;;;;;;;;;15.95;48.50;100353.28;5052581;28;1913;-45
2024/03/14 03:37:31;;;;;;;;;;;;;;;15.93;48.53;100349.91;5047591;28;835;-44
2024/03/14 03:39:58;;;;;;;;;;;;;;;15.45;49.47;100354.34;5039899;28;1075;-43
2024/03/14 03:42:24;;;;;;;;;;;;;;;17.28;47.53;100362.41;5058574;28;1106;-40
2024/03/14 03:44:49;;;;;;;;;;;;;;;15.89;48.98;100354.59;5058653;28;1098;-43
2024/03/14 03:47:16;;;;;;;;;;;;;;;15.45;48.81;100363.13;5051689;28;1199;-39
2024/03/14 03:49:42;;;;;;;;;;;;;;;15.16;47.73;100363.47;5054115;28;964;-44
2024/03/14 03:52:08;;;;;;;;;;;;;;;14.97;47.52;100362.16;5046850;28;1064;-40
2024/03/14 03:54:33;;;;;;;;;;;;;;;14.84;47.09;100361.34;5058562;28;1063;-42
2024/03/14 03:56:59;;;;;;;;;;;;;;;15.15;47.39;100369.72;5058709;28;1978;-44
2024/03/14 03:59:25;;;;;;;;;;;;;;;15.65;48.00;100366.09;5045285;28;1133;-42
2024/03/14 04:01:50;;;;;;;;;;;;;;;15.06;48.13;100371.25;5041956;28;905;-43
2024/03/14 04:04:17;;;;;;;;;;;;;;;16.03;48.58;100372.13;5051867;28;1055;-44
2024/03/14 04:06:43;;;;;;;;;;;;;;;15.81;49.01;100367.59;5058784;28;1051;-43
2024/03/14 04:09:15;;;;;;;;;;;;;;;15.28;48.36;100361.75;5058417;28;1059;-42
2024/03/14 04:11:44;;;;;;;;;;;;;;;15.01;47.50;100371.59;5051291;28;1059;-46
2024/03/14 04:14:09;;;;;;;;;;;;;;;15.87;48.74;100378.56;5043383;28;925;-40
2024/03/14 04:16:38;;;;;;;;;;;;;;;15.76;48.36;100375.91;5058399;28;1981;-44
2024/03/14 04:19:06;;;;;;;;;;;;;;;15.13;48.60;100363.72;5058162;28;1042;-45
2024/03/14 04:21:31;;;;;;;;;;;;;;;14.88;47.93;100368.16;5050234;28;1058;-45
2024/03/14 04:23:57;;;;;;;;;;;;;;;14.91;47.08;100376.69;5053070;28;1108;-46
2024/03/14 04:26:23;;;;;;;;;;;;;;;14.77;46.62;100377.66;5046574;28;829;-45
2024/03/14 04:28:49;;;;;;;;;;;;;;;16.35;47.74;100381.22;5042780;28;1175;-41
2024/03/14 04:31:17;;;;;;;;;;;;;;;15.25;48.57;100383.13;5047158;28;1090;-41
2024/03/14 04:33:43;;;;;;;;;;;;;;;14.97;47.99;100379.84;5057479;28;1027;-41
2024/03/14 04:36:09;;;;;;;;;;;;;;;15.99;48.15;100390.09;5057006;28;1902;-44
2024/03/14 04:38:34;;;;;;;;;;;;;;;15.62;48.42;100382.22;5053515;28;1283;-41
2024/03/14 04:41:00;;;;;;;;;;;;;;;15.10;48.12;100387.78;5049449;28;1115;-39
2024/03/14 04:43:27;;;;;;;;;;;;;;;14.90;47.43;100392.69;5053683;28;1179;-41
2024/03/14 04:45:52;;;;;;;;;;;;;;;14.78;46.80;100389.13;5058203;28;1067;-41
2024/03/14 04:48:18;;;;;;;;;;;;;;;16.03;48.18;100404.81;5056021;28;1090;-45
2024/03/14 04:50:46;;;;;;;;;;;;;;;15.16;48.58;100405.88;5038614;28;1119;-46
2024/03/14 04:53:12;;;;;;;;;;;;;;;14.86;47.74;100407.13;5022232;28;1056;-44
2024/03/14 04:55:39;;;;;;;;;;;;;;;15.18;48.91;100404.78;5049248;28;1902;-41
2024/03/14 04:58:06;;;;;;;;;;;;;;;15.92;48.13;100412.69;5049412;28;1071;-39
2024/03/14 05:00:32;;;;;;;;;;;;;;;15.12;48.45;100410.53;5045607;28;1218;-39
2024/03/14 05:02:58;;;;;;;;;;;;;;;15.43;48.82;100412.78;5054963;28;1087;-45
2024/03/14 05:05:24;;;;;;;;;;;;;;;15.87;48.36;100421.03;5056845;28;1102;-46
2024/03/14 05:07:50;;;;;;;;;;;;;;;15.22;48.18;100416.03;5044348;28;1201;-41
2024/03/14 05:10:18;;;;;;;;;;;;;;;15.23;48.59;100428.31;5057674;28;1094;-42
2024/03/14 05:12:44;;;;;;;;;;;;;;;16.44;45.89;100428.28;5040625;28;1052;-43
2024/03/14 05:15:10;;;;;;;;;;;;;;;16.11;46.49;100433.44;5037517;28;1953;-44
2024/03/14 05:17:36;;;;;;;;;;;;;;;15.86;47.13;100434.41;5054953;28;1198;-44
2024/03/14 05:20:02;;;;;;;;;;;;;;;15.70;47.14;100434.72;5054008;28;1351;-46
2024/03/14 05:22:32;;;;;;;;;;;;;;;15.53;47.67;100434.97;5034797;28;2378;-41
2024/03/14 05:24:58;;;;;;;;;;;;;;;15.36;48.21;100435.38;5039583;28;1849;-45
2024/03/14 05:27:27;;;;;;;;;;;;;;;15.32;48.17;100439.19;5038239;28;1797;-44
2024/03/14 05:29:52;;;;;;;;;;;;;;;15.40;48.51;100445.63;5042724;28;2094;-44
2024/03/14 05:32:21;;;;;;;;;;;;;;;16.86;45.12;100438.31;5052058;28;1984;-45
2024/03/14 05:34:50;;;;;;;;;;;;;;;16.91;45.32;100443.25;5047341;28;1896;-43
2024/03/14 05:37:16;;;;;;;;;;;;;;;16.36;45.77;100441.31;5050244;28;2168;-44
2024/03/14 05:39:42;;;;;;;;;;;;;;;15.64;47.68;100449.25;5042712;28;1179;-43
2024/03/14 05:42:12;;;;;;;;;;;;;;;15.41;48.45;100442.03;5036188;28;1044;-41
2024/03/14 05:44:43;;;;;;;;;;;;;;;15.99;47.40;100448.47;5049989;28;1088;-45
2024/03/14 05:47:11;;;;;;;;;;;;;;;17.37;44.38;100445.84;5036957;28;1170;-40
2024/03/14 05:49:37;;;;;;;;;;;;;;;16.56;45.98;100453.03;5032433;28;923;-44
2024/03/14 05:52:03;;;;;;;;;;;;;;;16.09;47.03;100442.44;5056355;28;1055;-42
2024/03/14 05:54:29;;;;;;;;;;;;;;;15.78;47.90;100453.53;5036288;28;1192;-46
2024/03/14 05:56:55;;;;;;;;;;;;;;;15.62;47.94;100456.47;5035849;28;1901;-43
2024/03/14 05:59:21;;;;;;;;;;;;;;;15.79;48.23;100456.09;5037343;28;1207;-43
2024/03/14 06:01:47;;;;;;;;;;;;;;;17.23;44.73;100469.09;5037083;28;1275;-43
2024/03/14 06:04:13;;;;;;;;;;;;;;;16.88;45.35;100467.41;5018361;28;1192;-46
2024/03/14 06:06:39;;;;;;;;;;;;;;;16.25;46.90;100472.16;5035302;28;2580;-44
2024/03/14 06:09:04;;;;;;;;;;;;;;;15.97;47.39;100473.38;5036442;28;1196;-40
2024/03/14 06:11:31;;;;;;;;;;;;;;;15.74;48.24;100473.28;5018337;28;1287;-44
2024/03/14 06:13:58;;;;;;;;;;;;;;;15.57;48.25;100477.16;5036037;28;1105;-44
2024/03/14 06:16:24;;;;;;;;;;;;;;;16.66;46.23;100482.38;5047830;28;1906;-45
2024/03/14 06:18:49;;;;;;;;;;;;;;;17.34;44.24;100483.34;5055889;28;1031;-43
2024/03/14 06:21:15;;;;;;;;;;;;;;;16.39;46.47;100486.19;5055411;28;1099;-42
2024/03/14 06:23:41;;;;;;;;;;;;;;;16.04;47.71;100490.56;5037123;28;1242;-42
2024/03/14 06:26:06;;;;;;;;;;;;;;;15.77;48.10;100489.81;5046759;28;1221;-44
2024/03/14 06:28:33;;;;;;;;;;;;;;;15.79;48.45;100489.72;5054557;28;1012;-43
2024/03/14 06:30:59;;;;;;;;;;;;;;;17.27;44.82;100492.78;5044334;28;1190;-41
2024/03/14 06:33:27;;;;;;;;;;;;;;;16.72;45.98;100496.97;5054453;28;1087;-43
2024/03/14 06:35:53;;;;;;;;;;;;;;;16.21;47.37;100504.38;5039013;28;2562;-41
2024/03/14 06:38:18;;;;;;;;;;;;;;;15.84;48.00;100505.28;5054848;28;1133;-41
2024/03/14 06:40:45;;;;;;;;;;;;;;;15.63;48.61;100508.56;5056596;28;1074;-41
2024/03/14 06:43:10;;;;;;;;;;;;;;;15.98;48.21;100507.78;5055704;28;1058;-44
2024/03/14 06:45:36;;;;;;;;;;;;;;;17.40;44.61;100511.25;5056375;28;1193;-43
2024/03/14 06:48:03;;;;;;;;;;;;;;;16.85;45.61;100515.50;5056234;28;1304;-44
2024/03/14 06:50:31;;;;;;;;;;;;;;;16.22;47.27;100514.88;5055567;28;1088;-43
2024/03/14 06:52:58;;;;;;;;;;;;;;;15.90;47.85;100521.59;5059022;28;1131;-44
2024/03/14 06:55:24;;;;;;;;;;;;;;;15.71;48.21;100519.44;5059922;28;1901;-46
2024/03/14 06:57:52;;;;;;;;;;;;;;;15.49;48.66;100523.66;5059489;28;1037;-46
2024/03/14 07:00:22;;;;;;;;;;;;;;;16.77;46.27;100524.88;5059404;28;1365;-45
2024/03/14 07:02:52;;;;;;;;;;;;;;;17.64;44.29;100535.03;5058784;28;1187;-45
2024/03/14 07:05:19;;;;;;;;;;;;;;;16.57;46.29;100531.72;5059356;28;2647;-42
2024/03/14 07:07:45;;;;;;;;;;;;;;;16.08;47.82;100537.13;5059505;28;1318;-43
2024/03/14 07:10:13;;;;;;;;;;;;;;;15.85;48.12;100531.69;5059213;28;1098;-43
2024/03/14 07:12:45;;;;;;;;;;;;;;;15.66;48.79;100530.38;5059499;28;1090;-41
2024/03/14 07:15:12;;;;;;;;;;;;;;;17.00;45.75;100535.53;5059254;28;913;-42
2024/03/14 07:17:38;;;;;;;;;;;;;;;17.34;44.80;100533.84;5059241;28;1978;-45
2024/03/14 07:20:09;;;;;;;;;;;;;;;16.52;46.78;100534.75;5059303;28;1031;-43
2024/03/14 07:22:41;;;;;;;;;;;;;;;16.10;47.80;100542.34;5059464;28;1015;-46
2024/03/14 07:25:08;;;;;;;;;;;;;;;15.91;48.32;100539.19;5059558;28;1035;-44
2024/03/14 07:27:34;;;;;;;;;;;;;;;15.74;48.97;100542.25;5059018;28;1082;-41
2024/03/14 07:30:00;;;;;;;;;;;;;;;16.68;46.98;100549.53;5059137;28;1098;-42
2024/03/14 07:32:26;;;;;;;;;;;;;;;17.49;44.83;100548.59;5059300;28;1063;-42
2024/03/14 07:34:52;;;;;;;;;;;;;;;16.57;46.74;100549.47;5059209;28;1245;-44
2024/03/14 07:37:23;;;;;;;;;;;;;;;16.09;48.12;100548.59;5071572;28;2597;-40
2024/03/14 07:39:54;;;;;;;;;;;;;;;15.85;48.53;100546.78;5058869;28;940;-42
2024/03/14 07:42:20;;;;;;;;;;;;;;;15.65;49.04;100555.22;5059539;28;1082;-42
2024/03/14 07:44:46;;;;;;;;;;;;;;;16.94;46.60;100551.97;5059184;28;1031;-41
2024/03/14 07:47:23;;;;;;;;;;;;;;;17.56;44.47;100562.25;5059704;28;1133;-41
2024/03/14 07:49:50;;;;;;;;;;;;;;;16.50;47.01;100557.91;5058671;28;1135;-40
2024/03/14 07:52:15;;;;;;;;;;;;;;;16.06;48.03;100552.34;5057956;28;1115;-40
2024/03/14 07:54:44;;;;;;;;;;;;;;;15.85;48.62;100555.56;5058491;28;1124;-42
2024/03/14 07:57:12;;;;;;;;;;;;;;;15.68;48.93;100554.16;5058782;28;1986;-46
2024/03/14 07:59:38;;;;;;;;;;;;;;;16.98;46.29;100549.91;5058960;28;1187;-43
2024/03/14 08:02:07;;;;;;;;;;;;;;;17.48;44.76;100562.00;5058562;28;1038;-42
2024/03/14 08:04:33;;;;;;;;;;;;;;;16.55;47.05;100554.91;5058222;28;1043;-43
2024/03/14 08:06:59;;;;;;;;;;;;;;;16.16;47.84;100561.28;5063755;28;2872;-45
2024/03/14 08:13:00;;;;;;;;;;;;;;;17.52;46.25;100574.09;5054738;28;1966;-44
2024/03/14 08:15:35;;;;;;;;;;;;;;;15.97;49.39;100566.22;5064346;28;2008;-44
2024/03/14 08:18:02;;;;;;;;;;;;;;;15.52;48.75;100572.94;5066082;28;2261;-40
2024/03/14 08:20:28;;;;;;;;;;;;;;;16.02;49.73;100570.28;5064869;28;2097;-41
2024/03/14 08:22:54;;;;;;;;;;;;;;;15.99;49.31;100572.31;5058197;28;1769;-44
2024/03/14 08:25:19;;;;;;;;;;;;;;;15.45;48.99;100580.50;5058218;28;2670;-43
2024/03/14 08:27:49;;;;;;;;;;;;;;;16.10;49.22;100575.00;5057922;28;2114;-41
2024/03/14 08:30:15;;;;;;;;;;;;;;;15.64;49.40;100577.38;5058184;28;1167;-41
2024/03/14 08:32:42;;;;;;;;;;;;;;;15.28;48.36;100577.22;5057988;28;1011;-44
2024/03/14 08:35:10;;;;;;;;;;;;;;;15.50;49.04;100580.16;5057932;28;1151;-43
2024/03/14 08:37:35;;;;;;;;;;;;;;;15.72;49.23;100571.53;5056593;28;1902;-47
2024/03/14 08:40:05;;;;;;;;;;;;;;;15.37;49.85;100578.41;5057726;28;856;-45
2024/03/14 08:42:34;;;;;;;;;;;;;;;17.27;47.61;100577.88;5057618;28;1118;-38
2024/03/14 08:45:01;;;;;;;;;;;;;;;15.84;49.11;100579.53;5058316;28;1171;-45
2024/03/14 08:47:27;;;;;;;;;;;;;;;17.03;48.44;100579.63;5057896;28;1128;-45
2024/03/14 08:49:53;;;;;;;;;;;;;;;16.86;48.43;100579.13;5057552;28;1016;-43
2024/03/14 08:52:21;;;;;;;;;;;;;;;15.90;49.30;100574.66;5057759;28;817;-44
2024/03/14 08:54:47;;;;;;;;;;;;;;;15.66;48.31;100570.16;5057514;28;1498;-46
2024/03/14 08:57:12;;;;;;;;;;;;;;;15.54;47.28;100574.56;5062546;28;2926;-41
2024/03/14 08:59:39;;;;;;;;;;;;;;;16.32;49.13;100583.19;5057559;28;1167;-41
2024/03/14 09:02:09;;;;;;;;;;;;;;;16.15;48.84;100572.88;5057920;28;1070;-41
2024/03/14 09:04:35;;;;;;;;;;;;;;;15.66;48.45;100578.09;5057453;28;1012;-43
2024/03/14 09:07:06;;;;;;;;;;;;;;;15.74;49.31;100576.72;5057541;28;1094;-41
2024/03/14 09:09:34;;;;;;;;;;;;;;;17.09;47.94;100579.19;5057126;28;1008;-40
2024/03/14 09:12:09;;;;;;;;;;;;;;;15.92;48.98;100577.19;5057681;28;1104;-42
2024/03/14 09:14:36;;;;;;;;;;;;;;;15.61;48.15;100574.09;5057410;28;1123;-43
2024/03/14 09:17:04;;;;;;;;;;;;;;;15.35;47.82;100580.28;5056290;28;1909;-40
2024/03/14 09:19:31;;;;;;;;;;;;;;;16.99;48.50;100575.50;5057529;28;1129;-41
2024/03/14 09:21:57;;;;;;;;;;;;;;;16.04;49.40;100575.47;5055988;28;1025;-40
2024/03/14 09:24:22;;;;;;;;;;;;;;;15.64;48.58;100574.75;5043191;28;1539;-40
2024/03/14 09:26:49;;;;;;;;;;;;;;;16.13;49.69;100587.22;5054984;28;2422;-41
2024/03/14 09:29:15;;;;;;;;;;;;;;;15.83;48.99;100575.22;5056932;28;1071;-45
2024/03/14 09:31:46;;;;;;;;;;;;;;;15.48;48.09;100587.41;5056948;28;1016;-41
2024/03/14 09:34:12;;;;;;;;;;;;;;;17.00;47.94;100575.38;5056607;28;1031;-45
2024/03/14 09:36:37;;;;;;;;;;;;;;;15.90;48.74;100587.03;5043534;28;1985;-41
2024/03/14 09:39:13;;;;;;;;;;;;;;;15.61;48.09;100584.72;5056615;28;1240;-45
2024/03/14 09:41:41;;;;;;;;;;;;;;;15.74;48.81;100584.66;5057346;28;1143;-45
2024/03/14 09:44:07;;;;;;;;;;;;;;;16.82;48.03;100582.97;5056838;28;1088;-43
2024/03/14 09:46:34;;;;;;;;;;;;;;;15.86;48.44;100581.16;5056874;28;1195;-41
2024/03/14 09:49:01;;;;;;;;;;;;;;;15.51;47.98;100582.72;5056618;28;1424;-45
2024/03/14 09:51:27;;;;;;;;;;;;;;;17.10;48.05;100580.84;5056478;28;1012;-43
2024/03/14 09:53:54;;;;;;;;;;;;;;;16.15;48.60;100577.31;5056837;28;1206;-48
2024/03/14 09:56:19;;;;;;;;;;;;;;;15.66;48.36;100583.41;5058326;28;2482;-43
2024/03/14 09:58:45;;;;;;;;;;;;;;;16.28;49.33;100582.59;5056729;28;1222;-41
2024/03/14 10:01:11;;;;;;;;;;;;;;;16.27;48.84;100581.72;5056177;28;1129;-43
2024/03/14 10:03:38;;;;;;;;;;;;;;;15.80;48.64;100589.53;5053103;28;1155;-45
2024/03/14 10:06:15;;;;;;;;;;;;;;;17.45;47.24;100584.38;5055926;28;1251;-42
2024/03/14 10:08:44;;;;;;;;;;;;;;;16.09;48.89;100583.94;5043316;28;1134;-43
2024/03/14 10:11:13;;;;;;;;;;;;;;;15.71;48.17;100580.44;5058212;28;1271;-42
2024/03/14 10:13:43;;;;;;;;;;;;;;;16.22;49.40;100585.69;5037554;28;1206;-45
2024/03/14 10:16:09;;;;;;;;;;;;;;;16.59;48.54;100592.69;5041935;28;1910;-42
2024/03/14 10:18:34;;;;;;;;;;;;;;;15.93;48.62;100584.19;5041337;28;1362;-41
2024/03/14 10:21:06;;;;;;;;;;;;;;;16.98;48.55;100584.47;5041085;28;1199;-45
2024/03/14 10:23:32;;;;;;;;;;;;;;;16.03;48.71;100587.88;5050239;28;1341;-40
2024/03/14 10:25:58;;;;;;;;;;;;;;;17.52;47.58;100586.56;5054694;28;2535;-45
2024/03/14 10:28:28;;;;;;;;;;;;;;;17.36;47.64;100585.97;5055599;28;1020;-42
2024/03/14 10:30:57;;;;;;;;;;;;;;;16.40;48.39;100586.09;5043416;28;1114;-43
2024/03/14 10:33:29;;;;;;;;;;;;;;;15.93;47.97;100581.53;5056394;28;991;-42
2024/03/14 10:35:56;;;;;;;;;;;;;;;15.78;47.44;100583.50;5054862;28;1910;-43
2024/03/14 10:38:25;;;;;;;;;;;;;;;15.58;46.94;100583.09;5054879;28;1565;-40
2024/03/14 10:40:51;;;;;;;;;;;;;;;15.37;46.67;100585.50;5054290;28;1164;-46
2024/03/14 10:43:17;;;;;;;;;;;;;;;15.33;46.17;100584.84;5072237;28;1040;-43
2024/03/14 10:45:43;;;;;;;;;;;;;;;15.27;45.92;100580.00;5054146;28;1167;-43
2024/03/14 10:48:08;;;;;;;;;;;;;;;15.05;45.86;100582.34;5055782;28;1210;-41
2024/03/14 10:50:34;;;;;;;;;;;;;;;15.08;45.69;100583.09;5054437;28;1184;-45
2024/03/14 10:53:00;;;;;;;;;;;;;;;16.18;47.95;100584.22;5053868;28;1203;-46
2024/03/14 10:55:30;;;;;;;;;;;;;;;15.93;48.41;100578.91;5055929;28;1918;-43
2024/03/14 10:57:57;;;;;;;;;;;;;;;15.34;48.65;100580.41;5054800;28;1040;-43
2024/03/14 11:00:23;;;;;;;;;;;;;;;15.20;47.67;100586.69;5054469;28;1093;-47
2024/03/14 11:02:49;;;;;;;;;;;;;;;15.67;48.14;100581.63;5055239;28;1190;-45
2024/03/14 11:05:17;;;;;;;;;;;;;;;15.70;48.71;100584.03;5055152;28;1262;-43
2024/03/14 11:07:43;;;;;;;;;;;;;;;15.18;48.09;100581.50;5052847;28;1124;-45
2024/03/14 11:10:23;;;;;;;;;;;;;;;15.53;48.86;100578.16;5053965;28;1207;-43
2024/03/14 11:12:49;;;;;;;;;;;;;;;16.69;48.02;100579.56;5053671;28;1108;-40
2024/03/14 11:15:16;;;;;;;;;;;;;;;15.63;48.94;100585.47;5054833;28;1278;-45
2024/03/14 11:17:42;;;;;;;;;;;;;;;15.37;48.48;100591.66;5056733;28;1905;-42
2024/03/14 11:20:09;;;;;;;;;;;;;;;15.21;47.69;100583.06;5053352;28;1055;-45
2024/03/14 11:22:37;;;;;;;;;;;;;;;15.76;48.48;100588.94;5053921;28;1054;-39
2024/03/14 11:25:04;;;;;;;;;;;;;;;16.18;48.75;100582.44;5041500;28;933;-42
2024/03/14 11:27:29;;;;;;;;;;;;;;;15.47;48.80;100588.34;5069284;28;2156;-43
2024/03/14 11:29:55;;;;;;;;;;;;;;;15.25;48.28;100584.53;5041212;28;1084;-45
2024/03/14 11:32:23;;;;;;;;;;;;;;;15.07;47.56;100579.59;5054380;28;1087;-42
2024/03/14 11:34:52;;;;;;;;;;;;;;;15.29;48.14;100584.25;5053602;28;1110;-42
2024/03/14 11:37:17;;;;;;;;;;;;;;;15.85;47.97;100583.91;5053208;28;1969;-44
2024/03/14 11:39:49;;;;;;;;;;;;;;;15.25;48.81;100584.53;5055301;28;1112;-41
2024/03/14 11:42:16;;;;;;;;;;;;;;;15.02;47.52;100587.00;5056334;28;914;-39
2024/03/14 11:44:45;;;;;;;;;;;;;;;15.89;48.86;100593.31;5057949;28;1046;-39
2024/03/14 11:47:19;;;;;;;;;;;;;;;17.44;47.23;100597.78;5057216;28;1163;-43
2024/03/14 11:49:48;;;;;;;;;;;;;;;15.95;48.84;100595.53;5056949;28;1108;-41
2024/03/14 11:52:15;;;;;;;;;;;;;;;15.48;48.95;100601.47;5056060;28;1210;-44
2024/03/14 11:54:41;;;;;;;;;;;;;;;15.35;47.86;100601.50;5057469;28;1246;-43
2024/03/14 11:57:08;;;;;;;;;;;;;;;15.85;49.31;100598.00;5056634;28;2519;-45
2024/03/14 11:59:38;;;;;;;;;;;;;;;16.22;48.86;100598.94;5057230;28;1187;-41
2024/03/14 12:02:03;;;;;;;;;;;;;;;15.48;48.83;100601.47;5057135;28;1262;-42
2024/03/14 12:04:29;;;;;;;;;;;;;;;15.28;48.09;100605.56;5057019;28;1136;-44
2024/03/14 12:06:55;;;;;;;;;;;;;;;15.07;47.19;100600.78;5056223;28;1199;-41
2024/03/14 12:09:24;;;;;;;;;;;;;;;15.02;46.62;100602.91;5056764;28;1207;-41
2024/03/14 12:11:50;;;;;;;;;;;;;;;14.86;46.47;100597.81;5055667;28;1184;-40
2024/03/14 12:14:19;;;;;;;;;;;;;;;14.78;46.31;100600.94;5056582;28;1242;-42
2024/03/14 12:16:48;;;;;;;;;;;;;;;16.12;48.41;100591.69;5055341;28;1898;-42
2024/03/14 12:19:16;;;;;;;;;;;;;;;15.48;48.72;100608.59;5056247;28;1051;-45
2024/03/14 12:21:42;;;;;;;;;;;;;;;15.13;48.51;100612.78;5056388;28;1155;-44
2024/03/14 12:24:16;;;;;;;;;;;;;;;16.26;48.68;100609.25;5057498;28;1050;-43
2024/03/14 12:26:43;;;;;;;;;;;;;;;16.10;48.50;100608.69;5055336;28;2441;-39
2024/03/14 12:29:09;;;;;;;;;;;;;;;15.36;48.94;100611.16;5056682;28;1415;-45
2024/03/14 12:31:37;;;;;;;;;;;;;;;15.23;48.03;100620.94;5056917;28;1023;-44
2024/03/14 12:34:03;;;;;;;;;;;;;;;15.92;49.38;100622.28;5055839;28;1032;-40
2024/03/14 12:36:29;;;;;;;;;;;;;;;15.89;48.94;100623.38;5054741;28;1965;-42
2024/03/14 12:38:55;;;;;;;;;;;;;;;15.35;49.07;100625.34;5055543;28;988;-39
2024/03/14 12:41:20;;;;;;;;;;;;;;;15.86;49.58;100620.94;5055212;28;1108;-45
2024/03/14 12:43:47;;;;;;;;;;;;;;;16.25;48.57;100623.47;5055413;28;960;-44
2024/03/14 12:46:13;;;;;;;;;;;;;;;15.52;48.78;100632.13;5057020;28;1209;-43
2024/03/14 12:48:39;;;;;;;;;;;;;;;15.17;48.27;100622.19;5054325;28;1211;-44
2024/03/14 12:51:12;;;;;;;;;;;;;;;16.71;48.83;100628.97;5053698;28;1200;-40